Time;durP1;ratioP1;P1;durP2;ratioP2;P2;SDS_P1;SDS_P2;PMS_P1;PMS_P2;Temp;Humidity;BMP_temperature;BMP_pressure;BME280_temperature;BME280_humidity;BME280_pressure;Samples;Min_cycle;Max_cycle;Signal;HPM_P1;HPM_P2
2021/07/01 00:01:57;;;;;;;3.80;2.38;;;20.40;99.90;;;;;;4993305;28;20030;-82
2021/07/01 00:04:23;;;;;;;3.47;2.05;;;20.40;99.90;;;;;;4994967;28;20037;-83
2021/07/01 00:06:49;;;;;;;3.83;1.98;;;20.40;99.90;;;;;;4994122;28;20403;-84
2021/07/01 00:09:17;;;;;;;3.10;2.08;;;20.40;99.90;;;;;;4995116;28;20034;-79
2021/07/01 00:11:44;;;;;;;4.28;2.05;;;20.40;99.90;;;;;;4994746;28;20030;-74
2021/07/01 00:14:10;;;;;;;4.28;2.13;;;20.40;99.90;;;;;;4995261;28;20026;-80
2021/07/01 00:16:36;;;;;;;5.40;2.42;;;20.40;99.90;;;;;;4994507;28;20414;-77
2021/07/01 00:19:03;;;;;;;2.30;1.90;;;20.40;99.90;;;;;;4994544;28;20050;-78
2021/07/01 00:21:29;;;;;;;2.72;1.60;;;20.40;99.90;;;;;;4995502;28;20030;-76
2021/07/01 00:23:55;;;;;;;4.15;1.80;;;20.40;99.90;;;;;;4994064;28;20022;-84
2021/07/01 00:26:20;;;;;;;4.28;2.00;;;20.40;99.90;;;;;;4994454;28;20511;-85
2021/07/01 00:28:46;;;;;;;3.55;2.10;;;20.40;99.90;;;;;;5008819;28;20506;-85
2021/07/01 00:31:12;;;;;;;4.85;2.00;;;20.40;99.90;;;;;;4992688;28;20499;-78
2021/07/01 00:33:37;;;;;;;4.78;2.10;;;20.40;99.90;;;;;;4993509;28;20088;-83
2021/07/01 00:36:03;;;;;;;4.03;2.10;;;20.30;99.90;;;;;;4994002;28;20038;-83
2021/07/01 00:38:28;;;;;;;3.42;1.92;;;20.30;99.90;;;;;;4994456;28;20414;-88
2021/07/01 00:40:56;;;;;;;4.60;1.98;;;20.40;99.90;;;;;;4994749;28;20026;-85
2021/07/01 00:43:22;;;;;;;3.95;2.47;;;20.40;99.90;;;;;;4994506;28;20022;-86
2021/07/01 00:45:49;;;;;;;4.13;2.10;;;20.30;99.90;;;;;;4993597;28;20030;-80
2021/07/01 00:48:18;;;;;;;4.32;1.98;;;20.30;99.90;;;;;;4994479;28;20026;-86
2021/07/01 00:50:45;;;;;;;3.40;1.77;;;20.30;99.90;;;;;;4994214;28;20109;-83
2021/07/01 00:53:10;;;;;;;2.95;1.55;;;20.30;99.90;;;;;;4993563;28;20418;-86
2021/07/01 00:55:37;;;;;;;4.88;1.98;;;20.40;99.90;;;;;;4994088;28;20026;-85
2021/07/01 00:58:04;;;;;;;4.60;2.10;;;20.30;99.90;;;;;;4993983;28;20110;-86
2021/07/01 01:03:11;;;;;;;3.22;1.98;;;20.40;99.90;;;;;;4993949;28;20058;-80
2021/07/01 01:05:37;;;;;;;4.28;2.35;;;20.40;99.90;;;;;;4993970;28;20023;-81
2021/07/01 01:08:03;;;;;;;2.92;2.22;;;20.30;99.90;;;;;;4994397;28;20102;-80
2021/07/01 01:10:28;;;;;;;3.55;2.00;;;20.30;99.90;;;;;;4994332;28;20022;-79
2021/07/01 01:12:54;;;;;;;3.50;2.03;;;20.30;99.90;;;;;;4993684;28;20026;-74
2021/07/01 01:15:20;;;;;;;3.08;1.92;;;20.30;99.90;;;;;;4993872;28;20072;-85
2021/07/01 01:17:46;;;;;;;4.07;1.73;;;20.30;99.90;;;;;;4993279;28;20105;-86
2021/07/01 01:20:13;;;;;;;3.10;2.20;;;20.30;99.90;;;;;;4993242;28;20097;-78
2021/07/01 01:22:39;;;;;;;2.95;1.88;;;20.30;99.90;;;;;;4992774;28;20426;-79
2021/07/01 01:25:06;;;;;;;4.22;2.20;;;20.30;99.90;;;;;;4992878;28;20042;-76
2021/07/01 01:27:32;;;;;;;4.70;2.20;;;20.30;99.90;;;;;;4993159;28;20084;-73
2021/07/01 01:29:57;;;;;;;5.05;2.08;;;20.30;99.90;;;;;;4993234;28;20117;-84
2021/07/01 01:32:23;;;;;;;3.25;2.15;;;20.30;99.90;;;;;;4994284;28;20471;-77
2021/07/01 01:34:49;;;;;;;4.18;2.47;;;20.30;99.90;;;;;;4992774;28;20026;-75
2021/07/01 01:37:15;;;;;;;3.33;2.28;;;20.30;99.90;;;;;;4993073;28;20066;-76
2021/07/01 01:39:49;;;;;;;5.53;2.33;;;20.30;99.90;;;;;;4992024;28;20019;-77
2021/07/01 01:42:15;;;;;;;3.20;2.08;;;20.30;99.90;;;;;;5020351;28;20038;-86
2021/07/01 01:44:40;;;;;;;3.90;2.30;;;20.30;99.90;;;;;;4992779;28;20034;-86
2021/07/01 01:47:16;;;;;;;2.30;1.73;;;20.30;99.90;;;;;;4992949;28;20023;-87
2021/07/01 01:49:51;;;;;;;2.47;2.00;;;20.20;99.90;;;;;;4993054;28;20042;-83
2021/07/01 01:52:17;;;;;;;2.85;2.20;;;20.20;99.90;;;;;;4992978;28;20486;-86
2021/07/01 01:54:43;;;;;;;2.97;2.10;;;20.20;99.90;;;;;;4992836;28;20038;-84
2021/07/01 01:57:09;;;;;;;3.97;2.08;;;20.20;99.90;;;;;;4993064;28;20022;-83
2021/07/01 01:59:35;;;;;;;3.75;1.90;;;20.20;99.90;;;;;;4992527;28;20044;-82
2021/07/01 02:02:01;;;;;;;3.10;2.15;;;20.20;99.90;;;;;;4992309;28;20402;-79
2021/07/01 02:04:26;;;;;;;3.47;2.42;;;20.20;99.90;;;;;;4992922;28;20486;-87
2021/07/01 02:06:55;;;;;;;3.78;2.15;;;20.20;99.90;;;;;;4991010;28;20061;-84
2021/07/01 02:09:22;;;;;;;7.13;2.63;;;20.20;99.90;;;;;;4992621;28;20031;-84
2021/07/01 02:11:48;;;;;;;3.28;2.20;;;20.20;99.90;;;;;;4992646;28;20030;-85
2021/07/01 02:14:14;;;;;;;4.43;2.42;;;20.20;99.90;;;;;;4992787;28;20434;-83
2021/07/01 02:16:40;;;;;;;3.42;2.40;;;20.20;99.90;;;;;;4992291;28;20069;-81
2021/07/01 02:19:07;;;;;;;3.50;2.50;;;20.20;99.90;;;;;;4990810;28;20018;-85
2021/07/01 02:21:32;;;;;;;5.45;2.33;;;20.20;99.90;;;;;;4992519;28;20037;-81
2021/07/01 02:23:58;;;;;;;4.10;2.10;;;20.20;99.90;;;;;;4992711;28;20018;-87
2021/07/01 02:26:24;;;;;;;4.15;2.10;;;20.20;99.90;;;;;;4992380;28;20122;-84
2021/07/01 02:28:49;;;;;;;3.90;2.22;;;20.20;99.90;;;;;;4992002;28;20022;-82
2021/07/01 02:31:15;;;;;;;3.05;2.05;;;20.20;99.90;;;;;;4990879;28;20038;-85
2021/07/01 02:33:40;;;;;;;3.80;2.80;;;20.10;99.90;;;;;;4991814;28;20061;-83
2021/07/01 02:36:06;;;;;;;3.33;2.17;;;20.20;99.90;;;;;;4992229;28;20117;-86
2021/07/01 02:38:32;;;;;;;3.35;2.20;;;20.20;99.90;;;;;;4991774;28;20396;-78
2021/07/01 02:40:57;;;;;;;3.35;2.30;;;20.20;99.90;;;;;;4992322;28;20058;-80
2021/07/01 02:43:23;;;;;;;3.80;2.40;;;20.20;99.90;;;;;;5006985;28;20023;-75
2021/07/01 02:45:49;;;;;;;2.15;1.80;;;20.10;99.90;;;;;;4991653;28;20026;-80
2021/07/01 02:48:14;;;;;;;2.92;1.55;;;20.10;99.90;;;;;;4992316;28;20029;-80
2021/07/01 02:50:41;;;;;;;5.18;2.10;;;20.10;99.90;;;;;;4989508;28;20172;-78
2021/07/01 02:53:06;;;;;;;8.88;2.20;;;20.10;99.90;;;;;;4992037;28;20033;-75
2021/07/01 02:55:34;;;;;;;4.47;2.20;;;20.10;99.90;;;;;;4992882;28;20027;-73
2021/07/01 02:58:00;;;;;;;4.13;1.95;;;20.10;99.90;;;;;;4992044;28;20085;-74
2021/07/01 03:00:26;;;;;;;3.47;2.28;;;20.10;99.90;;;;;;4990585;28;20073;-87
2021/07/01 03:02:52;;;;;;;3.72;2.08;;;20.10;99.90;;;;;;4991317;28;20026;-86
2021/07/01 03:05:17;;;;;;;3.65;2.42;;;20.10;99.90;;;;;;4991570;28;20475;-77
2021/07/01 03:07:43;;;;;;;4.28;2.17;;;20.10;99.90;;;;;;4991465;28;20069;-78
2021/07/01 03:10:09;;;;;;;3.08;2.22;;;20.10;99.90;;;;;;4991619;28;20034;-74
2021/07/01 03:12:35;;;;;;;3.20;2.10;;;20.10;99.90;;;;;;4991437;28;20027;-75
2021/07/01 03:15:00;;;;;;;3.20;2.00;;;20.10;99.90;;;;;;4990496;28;20033;-74
2021/07/01 03:17:26;;;;;;;5.40;1.90;;;20.10;99.90;;;;;;4994008;28;20033;-76
2021/07/01 03:19:52;;;;;;;2.92;1.80;;;20.10;99.90;;;;;;4994781;28;20027;-74
2021/07/01 03:22:17;;;;;;;3.28;2.22;;;20.10;99.90;;;;;;4995594;28;20022;-84
2021/07/01 03:24:43;;;;;;;2.83;1.77;;;20.10;99.90;;;;;;4995116;28;20042;-84
2021/07/01 03:27:09;;;;;;;2.42;2.10;;;20.00;99.90;;;;;;4995438;28;20533;-85
2021/07/01 03:29:35;;;;;;;2.33;2.00;;;20.10;99.90;;;;;;4995274;28;20057;-86
2021/07/01 03:32:01;;;;;;;3.83;2.30;;;20.10;99.90;;;;;;4995549;28;20030;-82
2021/07/01 03:34:26;;;;;;;2.42;1.92;;;20.00;99.90;;;;;;4995279;28;20441;-80
2021/07/01 03:36:52;;;;;;;5.90;2.10;;;20.00;99.90;;;;;;4995306;28;20027;-85
2021/07/01 03:39:17;;;;;;;6.65;2.17;;;20.10;99.90;;;;;;4994943;28;20047;-87
2021/07/01 03:41:43;;;;;;;3.42;1.80;;;20.00;99.90;;;;;;4995318;28;20054;-80
2021/07/01 03:44:10;;;;;;;5.07;2.13;;;20.00;99.90;;;;;;4994785;28;20026;-78
2021/07/01 03:46:37;;;;;;;3.40;1.98;;;20.00;99.90;;;;;;4993773;28;20112;-85
2021/07/01 03:49:03;;;;;;;2.05;1.85;;;20.00;99.90;;;;;;4994346;28;20031;-86
2021/07/01 03:51:29;;;;;;;3.63;2.03;;;20.00;99.90;;;;;;4994798;28;20085;-83
2021/07/01 03:53:54;;;;;;;4.22;1.98;;;20.00;99.90;;;;;;4994720;28;20026;-86
2021/07/01 03:56:20;;;;;;;3.55;2.13;;;20.00;99.90;;;;;;4994463;28;20442;-85
2021/07/01 03:58:46;;;;;;;5.85;2.13;;;20.00;99.90;;;;;;4994574;28;20491;-82
2021/07/01 04:01:12;;;;;;;4.20;1.85;;;20.00;99.90;;;;;;4994276;28;20042;-84
2021/07/01 04:03:37;;;;;;;3.40;1.98;;;20.00;99.90;;;;;;4995337;28;20382;-84
2021/07/01 04:06:03;;;;;;;6.20;2.30;;;20.00;99.90;;;;;;4995031;28;20394;-78
2021/07/01 04:08:29;;;;;;;3.78;2.25;;;19.90;99.90;;;;;;4994510;28;20109;-82
2021/07/01 04:10:55;;;;;;;2.70;2.00;;;20.00;99.90;;;;;;4994619;28;20026;-76
2021/07/01 04:13:20;;;;;;;6.32;2.22;;;19.90;99.90;;;;;;4994177;28;20019;-78
2021/07/01 04:15:46;;;;;;;2.30;1.73;;;20.00;99.90;;;;;;4994402;28;20046;-78
2021/07/01 04:18:15;;;;;;;2.58;1.65;;;20.00;99.90;;;;;;4993823;28;20033;-77
2021/07/01 04:20:42;;;;;;;2.65;2.00;;;20.00;99.90;;;;;;4994418;28;20023;-81
2021/07/01 04:23:08;;;;;;;4.57;2.10;;;20.00;99.90;;;;;;4994732;28;20092;-78
2021/07/01 04:25:34;;;;;;;4.55;2.47;;;19.90;99.90;;;;;;4994539;28;20033;-80
2021/07/01 04:28:00;;;;;;;4.40;1.90;;;20.00;99.90;;;;;;4993571;28;20035;-78
2021/07/01 04:30:26;;;;;;;2.90;2.05;;;19.90;99.90;;;;;;4993638;28;20046;-74
2021/07/01 04:32:52;;;;;;;3.05;1.75;;;19.90;99.90;;;;;;4992747;28;20104;-77
2021/07/01 04:35:18;;;;;;;4.00;2.30;;;20.00;99.90;;;;;;4993683;28;20078;-77
2021/07/01 04:37:43;;;;;;;4.20;1.98;;;20.00;99.80;;;;;;4994049;28;20022;-75
2021/07/01 04:40:10;;;;;;;2.28;1.80;;;20.00;99.90;;;;;;4993577;28;20553;-81
2021/07/01 04:42:40;;;;;;;2.03;1.70;;;19.90;99.80;;;;;;4993735;28;20053;-76
2021/07/01 04:45:07;;;;;;;3.72;2.03;;;19.90;99.80;;;;;;4993660;28;20120;-73
2021/07/01 04:47:33;;;;;;;3.78;1.98;;;19.90;99.80;;;;;;4993546;28;20026;-75
2021/07/01 04:49:59;;;;;;;2.67;1.83;;;19.90;99.80;;;;;;4993682;28;20066;-77
2021/07/01 04:52:27;;;;;;;4.32;1.73;;;19.90;99.80;;;;;;4993383;28;20027;-73
2021/07/01 04:54:52;;;;;;;3.72;2.10;;;19.90;99.80;;;;;;4992368;28;20383;-74
2021/07/01 04:57:18;;;;;;;3.42;2.03;;;19.90;99.70;;;;;;4992880;28;20073;-75
2021/07/01 04:59:44;;;;;;;5.10;2.72;;;19.90;99.70;;;;;;4992625;28;20042;-74
2021/07/01 05:02:09;;;;;;;3.70;1.92;;;19.90;99.80;;;;;;4992481;28;20030;-74
2021/07/01 05:04:35;;;;;;;2.75;1.63;;;19.90;99.80;;;;;;4993339;28;20655;-79
2021/07/01 05:07:00;;;;;;;5.60;1.65;;;19.90;99.80;;;;;;4993679;28;20061;-74
2021/07/01 05:09:26;;;;;;;2.42;1.80;;;19.90;99.70;;;;;;4993099;28;20075;-73
2021/07/01 05:11:52;;;;;;;3.47;2.17;;;19.90;99.70;;;;;;4993224;28;20031;-74
2021/07/01 05:14:17;;;;;;;4.70;1.77;;;19.90;99.70;;;;;;4992877;28;20069;-74
2021/07/01 05:16:43;;;;;;;3.03;2.00;;;19.90;99.70;;;;;;4993149;28;20061;-73
2021/07/01 05:19:09;;;;;;;3.97;2.13;;;19.90;99.70;;;;;;4989716;28;20031;-74
2021/07/01 05:21:34;;;;;;;3.38;1.88;;;19.90;99.70;;;;;;4992669;28;20030;-72
2021/07/01 05:24:00;;;;;;;2.90;1.70;;;19.90;99.70;;;;;;4993310;28;20065;-73
2021/07/01 05:26:25;;;;;;;3.30;1.70;;;19.90;99.70;;;;;;4991436;28;20030;-72
2021/07/01 05:28:51;;;;;;;3.70;1.77;;;19.90;99.70;;;;;;4992589;28;20037;-73
2021/07/01 05:31:17;;;;;;;3.10;1.70;;;19.90;99.70;;;;;;4991005;28;20041;-73
2021/07/01 05:33:42;;;;;;;3.42;1.90;;;19.80;99.70;;;;;;4992724;28;20022;-73
2021/07/01 05:36:09;;;;;;;4.45;1.88;;;19.90;99.80;;;;;;4992487;28;20076;-73
2021/07/01 05:38:34;;;;;;;4.45;2.22;;;19.90;99.80;;;;;;4992764;28;20027;-74
2021/07/01 05:41:00;;;;;;;3.13;1.83;;;19.90;99.80;;;;;;4992768;28;20030;-73
2021/07/01 05:43:26;;;;;;;3.00;1.65;;;19.90;99.90;;;;;;4992333;28;20558;-73
2021/07/01 05:45:54;;;;;;;4.63;1.73;;;19.90;99.80;;;;;;4991513;28;20030;-76
2021/07/01 05:48:21;;;;;;;3.22;1.90;;;19.90;99.90;;;;;;4991755;28;20382;-77
2021/07/01 05:51:20;;;;;;;3.22;1.98;;;19.90;99.90;;;;;;4992696;28;20038;-78
2021/07/01 05:56:13;;;;;;;8.52;2.47;;;19.80;99.90;;;;;;4991658;28;20365;-74
2021/07/01 05:58:39;;;;;;;9.05;1.95;;;19.90;99.90;;;;;;4992497;28;20105;-75
2021/07/01 06:01:05;;;;;;;3.85;2.22;;;19.90;99.90;;;;;;4992254;28;20469;-74
2021/07/01 06:03:32;;;;;;;6.10;2.13;;;19.90;99.90;;;;;;4992617;28;20026;-81
2021/07/01 06:06:02;;;;;;;15.27;4.15;;;19.90;99.90;;;;;;4992233;28;20033;-78
2021/07/01 06:08:29;;;;;;;7.47;2.53;;;19.90;99.90;;;;;;4992162;28;20612;-79
2021/07/01 06:11:01;;;;;;;9.25;2.75;;;20.00;99.90;;;;;;4992723;28;20419;-86
2021/07/01 06:13:28;;;;;;;12.07;2.85;;;20.00;99.90;;;;;;5007448;28;20031;-76
2021/07/01 06:15:54;;;;;;;10.05;2.60;;;19.90;99.90;;;;;;4991187;28;20080;-85
2021/07/01 06:18:21;;;;;;;9.77;3.08;;;20.00;99.90;;;;;;4991859;28;20030;-80
2021/07/01 06:20:47;;;;;;;7.07;2.60;;;20.00;99.90;;;;;;4991850;28;20026;-74
2021/07/01 06:23:14;;;;;;;10.13;2.85;;;20.00;99.90;;;;;;4991244;28;20455;-74
2021/07/01 06:25:39;;;;;;;10.60;2.70;;;20.00;99.90;;;;;;4991976;28;20018;-74
2021/07/01 06:28:06;;;;;;;5.03;2.60;;;20.00;99.90;;;;;;4992108;28;20402;-72
2021/07/01 06:30:35;;;;;;;6.50;2.88;;;20.00;99.90;;;;;;4991885;28;20109;-74
2021/07/01 06:33:01;;;;;;;6.55;2.50;;;20.00;99.90;;;;;;4992134;28;20033;-73
2021/07/01 06:35:28;;;;;;;5.65;2.80;;;20.00;99.90;;;;;;4991497;28;20030;-73
2021/07/01 06:37:57;;;;;;;9.20;3.22;;;20.00;99.90;;;;;;4991860;28;20022;-73
2021/07/01 06:40:24;;;;;;;6.55;2.47;;;20.00;99.90;;;;;;4991451;28;20498;-74
2021/07/01 06:42:54;;;;;;;6.95;2.55;;;20.00;99.90;;;;;;4991238;28;20491;-73
2021/07/01 06:45:21;;;;;;;11.35;2.38;;;20.00;99.90;;;;;;5022239;28;20026;-74
2021/07/01 06:47:49;;;;;;;8.13;2.75;;;20.10;99.90;;;;;;4989162;28;20054;-74
2021/07/01 06:50:17;;;;;;;6.10;2.50;;;20.10;99.90;;;;;;4991013;28;20052;-73
2021/07/01 06:52:44;;;;;;;13.38;2.80;;;20.00;99.90;;;;;;4994493;28;20038;-73
2021/07/01 06:55:13;;;;;;;5.50;2.10;;;20.00;99.90;;;;;;4995293;28;20014;-74
2021/07/01 06:57:40;;;;;;;3.53;1.95;;;20.10;99.90;;;;;;4994239;28;20041;-73
2021/07/01 07:00:07;;;;;;;5.70;1.83;;;20.10;99.90;;;;;;4995818;28;20550;-73
2021/07/01 07:02:34;;;;;;;3.83;2.20;;;20.00;99.90;;;;;;4995803;28;20061;-75
2021/07/01 07:05:05;;;;;;;4.32;2.30;;;20.00;99.80;;;;;;4995712;28;20026;-77
2021/07/01 07:07:32;;;;;;;8.02;2.40;;;20.10;99.90;;;;;;4994986;28;20486;-77
2021/07/01 07:10:02;;;;;;;4.15;2.15;;;20.10;99.70;;;;;;4995431;28;20034;-75
2021/07/01 07:12:28;;;;;;;4.88;2.42;;;20.10;99.60;;;;;;4995285;28;20030;-73
2021/07/01 07:14:54;;;;;;;4.75;2.55;;;20.10;99.60;;;;;;4995385;28;20042;-73
2021/07/01 07:17:27;;;;;;;5.43;3.10;;;20.00;99.50;;;;;;4994756;28;20069;-74
2021/07/01 07:19:56;;;;;;;5.25;2.80;;;20.00;99.50;;;;;;4995329;28;20486;-73
2021/07/01 07:22:26;;;;;;;7.38;2.67;;;20.10;99.40;;;;;;4994962;28;20019;-73
2021/07/01 07:24:54;;;;;;;6.43;2.72;;;20.10;99.30;;;;;;4993664;28;20113;-74
2021/07/01 07:27:26;;;;;;;4.50;2.78;;;20.10;99.30;;;;;;5011440;28;20081;-75
2021/07/01 07:29:52;;;;;;;5.32;2.63;;;20.10;99.30;;;;;;4975354;28;20042;-78
2021/07/01 07:32:21;;;;;;;4.53;2.38;;;20.10;99.20;;;;;;4975431;28;20077;-78
2021/07/01 07:34:49;;;;;;;5.47;2.42;;;20.10;99.20;;;;;;4975480;28;20058;-74
2021/07/01 07:37:15;;;;;;;3.65;2.60;;;20.10;99.20;;;;;;4975387;28;20468;-74
2021/07/01 07:39:40;;;;;;;4.60;2.22;;;20.10;99.40;;;;;;4975509;28;20153;-74
2021/07/01 07:42:07;;;;;;;7.05;2.53;;;20.10;99.00;;;;;;4975673;28;20073;-74
2021/07/01 07:44:35;;;;;;;4.50;2.35;;;20.10;99.00;;;;;;4975567;28;20031;-73
2021/07/01 07:47:02;;;;;;;4.22;2.67;;;20.10;99.10;;;;;;4982462;28;20018;-73
2021/07/01 07:49:28;;;;;;;4.18;2.67;;;20.10;99.00;;;;;;4993950;28;20490;-73
2021/07/01 07:51:55;;;;;;;5.35;2.70;;;20.10;98.90;;;;;;4994739;28;20022;-73
2021/07/01 07:54:26;;;;;;;4.38;2.70;;;20.10;98.90;;;;;;4994440;28;20382;-73
2021/07/01 07:56:56;;;;;;;4.63;2.80;;;20.10;98.90;;;;;;4994613;28;20032;-73
2021/07/01 07:59:26;;;;;;;6.80;3.58;;;20.10;98.90;;;;;;4994210;28;20097;-74
2021/07/01 08:01:52;;;;;;;8.38;3.00;;;20.10;98.80;;;;;;4994659;28;20041;-74
2021/07/01 08:04:21;;;;;;;4.97;2.75;;;20.00;98.70;;;;;;4992983;28;20065;-73
2021/07/01 08:06:49;;;;;;;6.10;2.58;;;20.00;98.70;;;;;;4994407;28;20089;-73
2021/07/01 08:09:15;;;;;;;7.57;2.75;;;20.00;98.60;;;;;;4994076;28;20026;-73
2021/07/01 08:11:42;;;;;;;6.35;2.72;;;20.10;98.60;;;;;;4994280;28;20077;-73
2021/07/01 08:14:08;;;;;;;4.10;2.65;;;20.00;98.60;;;;;;4994603;28;20026;-73
2021/07/01 08:16:34;;;;;;;7.38;2.70;;;20.00;98.50;;;;;;4990849;28;20037;-75
2021/07/01 08:19:00;;;;;;;5.13;3.08;;;20.00;98.50;;;;;;4974732;28;20026;-75
2021/07/01 08:21:26;;;;;;;5.97;2.83;;;20.00;98.50;;;;;;4974575;28;20038;-77
2021/07/01 08:23:53;;;;;;;5.75;2.92;;;20.00;98.50;;;;;;4974702;28;20073;-74
2021/07/01 08:26:18;;;;;;;6.85;2.95;;;20.00;98.50;;;;;;4988323;28;20026;-74
2021/07/01 08:28:44;;;;;;;5.95;2.92;;;20.00;98.50;;;;;;4994028;28;20026;-80
2021/07/01 08:31:15;;;;;;;3.90;2.67;;;20.00;98.40;;;;;;4993815;28;20053;-74
2021/07/01 08:33:45;;;;;;;5.63;2.92;;;20.00;98.40;;;;;;4993908;28;20034;-75
2021/07/01 08:36:17;;;;;;;4.70;2.90;;;20.00;98.40;;;;;;4993647;28;20033;-74
2021/07/01 08:38:43;;;;;;;3.95;2.60;;;20.00;98.30;;;;;;4993840;28;20093;-76
2021/07/01 08:41:13;;;;;;;6.25;3.30;;;20.00;98.30;;;;;;4992454;28;20037;-74
2021/07/01 08:44:00;;;;;;;4.10;2.75;;;20.00;98.30;;;;;;4993919;28;20026;-74
2021/07/01 08:46:27;;;;;;;5.50;3.33;;;20.00;98.30;;;;;;4988377;28;20038;-73
2021/07/01 08:49:07;;;;;;;5.63;2.78;;;20.00;98.20;;;;;;4973817;28;20019;-74
2021/07/01 08:51:36;;;;;;;6.63;3.08;;;20.00;98.20;;;;;;4974003;28;20049;-78
2021/07/01 08:54:20;;;;;;;3.80;2.80;;;20.00;98.20;;;;;;4972926;28;20034;-74
2021/07/01 08:56:47;;;;;;;5.72;3.38;;;20.00;98.20;;;;;;4974129;28;20035;-74
2021/07/01 08:59:16;;;;;;;5.95;3.70;;;20.00;98.10;;;;;;4999050;28;20037;-74
2021/07/01 09:01:42;;;;;;;6.05;3.20;;;20.00;98.10;;;;;;4993585;28;20486;-74
2021/07/01 09:04:13;;;;;;;4.13;3.00;;;20.00;98.00;;;;;;4993283;28;20538;-73
2021/07/01 09:06:39;;;;;;;5.05;3.33;;;20.00;98.00;;;;;;4993429;28;20092;-74
2021/07/01 09:09:08;;;;;;;9.63;3.63;;;20.00;97.90;;;;;;4993636;28;20109;-74
2021/07/01 09:11:36;;;;;;;6.53;2.97;;;20.10;97.90;;;;;;5008516;28;20054;-76
2021/07/01 09:14:08;;;;;;;6.50;3.35;;;20.10;97.90;;;;;;4992993;28;20025;-78
2021/07/01 09:16:36;;;;;;;6.13;2.88;;;20.10;98.00;;;;;;4993174;28;20066;-75
2021/07/01 09:19:02;;;;;;;4.90;3.20;;;20.00;97.80;;;;;;4993163;28;20033;-76
2021/07/01 09:21:28;;;;;;;5.95;3.60;;;20.10;97.70;;;;;;4992946;28;20027;-74
2021/07/01 09:23:54;;;;;;;4.53;3.17;;;20.10;97.70;;;;;;5008056;28;20029;-74
2021/07/01 09:26:23;;;;;;;4.70;2.97;;;20.10;97.70;;;;;;4992695;28;20030;-74
2021/07/01 09:28:49;;;;;;;5.00;3.13;;;20.10;97.70;;;;;;4992871;28;20101;-75
2021/07/01 09:31:20;;;;;;;5.10;3.55;;;20.10;97.90;;;;;;4992670;28;20133;-74
2021/07/01 09:33:48;;;;;;;5.20;3.47;;;20.10;97.60;;;;;;4992813;28;20505;-75
2021/07/01 09:36:15;;;;;;;6.05;3.88;;;20.10;97.60;;;;;;4992656;28;20386;-76
2021/07/01 09:38:45;;;;;;;4.45;3.13;;;20.10;97.60;;;;;;4992744;28;20026;-76
2021/07/01 09:41:12;;;;;;;5.38;3.33;;;20.10;97.50;;;;;;4992550;28;20041;-74
2021/07/01 09:43:45;;;;;;;5.22;3.75;;;20.10;97.50;;;;;;4992760;28;20554;-75
2021/07/01 09:46:17;;;;;;;6.03;3.70;;;20.10;97.40;;;;;;4992054;28;20034;-75
2021/07/01 09:48:50;;;;;;;5.90;4.20;;;20.10;97.40;;;;;;4992172;28;20034;-73
2021/07/01 09:51:16;;;;;;;7.85;4.07;;;20.10;97.40;;;;;;4991765;28;20088;-74
2021/07/01 09:53:48;;;;;;;5.18;3.80;;;20.10;97.30;;;;;;4992088;28;20038;-74
2021/07/01 09:56:36;;;;;;;5.70;3.72;;;20.10;97.20;;;;;;4992308;28;20515;-76
2021/07/01 09:59:06;;;;;;;5.63;3.78;;;20.10;97.20;;;;;;4992490;28;20034;-74
2021/07/01 10:01:38;;;;;;;6.78;4.35;;;20.10;97.20;;;;;;4992154;28;20057;-79
2021/07/01 10:04:04;;;;;;;5.82;3.72;;;20.10;97.20;;;;;;4992744;28;20109;-79
2021/07/01 10:06:30;;;;;;;6.18;3.72;;;20.10;97.20;;;;;;4992202;28;20018;-77
2021/07/01 10:08:56;;;;;;;6.30;3.60;;;20.10;97.10;;;;;;4992173;28;20027;-78
2021/07/01 10:11:42;;;;;;;6.70;4.50;;;20.20;97.10;;;;;;4992173;28;20498;-76
2021/07/01 10:14:17;;;;;;;5.15;4.03;;;20.20;97.00;;;;;;4992589;28;20069;-73
2021/07/01 10:16:43;;;;;;;6.40;3.85;;;20.10;97.00;;;;;;4990538;28;20030;-78
2021/07/01 10:19:17;;;;;;;5.45;3.83;;;20.10;96.90;;;;;;4992366;28;20026;-77
2021/07/01 10:21:42;;;;;;;6.45;3.80;;;20.20;96.90;;;;;;4992387;28;20494;-77
2021/07/01 10:24:19;;;;;;;11.07;4.65;;;20.20;96.90;;;;;;4992338;28;20030;-77
2021/07/01 10:26:47;;;;;;;5.65;3.88;;;20.20;96.80;;;;;;4991680;28;20033;-81
2021/07/01 10:29:14;;;;;;;6.18;3.92;;;20.20;96.80;;;;;;4992078;28;20030;-79
2021/07/01 10:32:05;;;;;;;5.20;3.60;;;20.20;96.70;;;;;;4992488;28;20077;-80
2021/07/01 10:34:31;;;;;;;4.60;3.30;;;20.20;96.60;;;;;;4991952;28;20030;-80
2021/07/01 10:37:25;;;;;;;7.47;3.90;;;20.20;96.60;;;;;;4992081;28;20034;-81
2021/07/01 10:39:52;;;;;;;5.05;4.05;;;20.20;96.50;;;;;;4991992;28;20054;-79
2021/07/01 10:42:18;;;;;;;4.68;3.72;;;20.20;96.60;;;;;;4991667;28;20110;-77
2021/07/01 10:44:44;;;;;;;5.20;3.85;;;20.20;96.50;;;;;;4991380;28;20098;-81
2021/07/01 10:47:28;;;;;;;5.18;4.50;;;20.20;96.40;;;;;;4991654;28;20093;-77
2021/07/01 10:49:54;;;;;;;7.43;3.90;;;20.20;96.40;;;;;;4991858;28;20049;-80
2021/07/01 10:52:32;;;;;;;5.00;3.85;;;20.20;96.40;;;;;;4991350;28;20076;-75
2021/07/01 10:54:59;;;;;;;6.22;4.68;;;20.20;96.30;;;;;;5022156;28;20120;-74
2021/07/01 10:57:30;;;;;;;4.75;3.88;;;20.20;96.30;;;;;;4991671;28;20034;-78
2021/07/01 10:59:57;;;;;;;6.00;4.10;;;20.30;96.20;;;;;;4991606;28;20118;-80
2021/07/01 11:02:24;;;;;;;5.35;3.83;;;20.30;96.10;;;;;;4991418;28;20026;-80
2021/07/01 11:04:52;;;;;;;4.93;4.20;;;20.30;96.10;;;;;;4991751;28;20033;-79
2021/07/01 11:07:21;;;;;;;5.43;4.40;;;20.30;96.10;;;;;;4991557;28;20054;-77
2021/07/01 11:09:52;;;;;;;5.07;4.05;;;20.30;96.10;;;;;;4991625;28;20534;-80
2021/07/01 11:12:21;;;;;;;5.68;4.28;;;20.30;96.00;;;;;;4991549;28;20023;-81
2021/07/01 11:14:49;;;;;;;7.28;4.30;;;20.30;96.30;;;;;;5012679;28;20443;-81
2021/07/01 11:17:16;;;;;;;6.38;4.05;;;20.30;95.90;;;;;;4972101;28;20030;-78
2021/07/01 11:19:43;;;;;;;5.38;4.30;;;20.30;95.90;;;;;;4972156;28;20386;-81
2021/07/01 11:22:09;;;;;;;4.82;3.90;;;20.30;96.00;;;;;;4986876;28;20475;-80
2021/07/01 11:24:42;;;;;;;5.18;3.67;;;20.30;95.90;;;;;;4972402;28;20053;-81
2021/07/01 11:27:08;;;;;;;6.05;4.15;;;20.30;95.90;;;;;;4971884;28;20015;-73
2021/07/01 11:29:45;;;;;;;7.28;4.47;;;20.30;95.70;;;;;;4972207;28;20081;-79
2021/07/01 11:32:16;;;;;;;6.60;4.50;;;20.30;95.70;;;;;;4971908;28;20448;-81
2021/07/01 11:34:44;;;;;;;5.55;4.47;;;20.30;95.70;;;;;;4971881;28;20025;-77
2021/07/01 11:37:11;;;;;;;5.22;4.47;;;20.30;95.60;;;;;;4972002;28;20110;-79
2021/07/01 11:39:36;;;;;;;7.22;4.97;;;20.40;95.50;;;;;;4975889;28;20026;-73
2021/07/01 11:42:03;;;;;;;8.07;4.53;;;20.40;95.50;;;;;;4975570;28;20103;-73
2021/07/01 11:44:37;;;;;;;6.05;4.63;;;20.40;95.40;;;;;;4984633;28;20034;-76
2021/07/01 11:47:04;;;;;;;6.00;4.55;;;20.40;95.40;;;;;;4995207;28;20502;-78
2021/07/01 11:49:32;;;;;;;6.07;4.68;;;20.40;95.30;;;;;;4994498;28;20042;-77
2021/07/01 11:52:01;;;;;;;4.68;3.92;;;20.40;95.30;;;;;;4994781;28;20371;-78
2021/07/01 11:54:28;;;;;;;6.10;4.70;;;20.40;95.20;;;;;;4993171;28;20038;-76
2021/07/01 11:56:56;;;;;;;5.30;4.03;;;20.40;95.20;;;;;;4981553;28;20031;-79
2021/07/01 11:59:26;;;;;;;6.38;4.53;;;20.40;95.20;;;;;;4994333;28;20026;-78
2021/07/01 12:01:52;;;;;;;7.93;4.57;;;20.40;95.20;;;;;;4994734;28;20043;-75
2021/07/01 12:04:18;;;;;;;6.40;5.07;;;20.50;95.10;;;;;;4994519;28;20073;-80
2021/07/01 12:06:44;;;;;;;6.68;4.50;;;20.50;95.10;;;;;;4994479;28;20084;-80
2021/07/01 12:09:13;;;;;;;5.90;4.57;;;20.50;95.00;;;;;;4994270;28;20509;-78
2021/07/01 12:12:01;;;;;;;6.88;5.07;;;20.50;95.00;;;;;;4994626;28;20045;-79
2021/07/01 12:14:31;;;;;;;5.20;4.18;;;20.50;95.00;;;;;;5010095;28;20023;-79
2021/07/01 12:16:57;;;;;;;5.07;4.35;;;20.50;95.00;;;;;;4994478;28;20023;-78
2021/07/01 12:19:45;;;;;;;5.85;4.80;;;20.50;95.00;;;;;;5025655;28;20483;-73
2021/07/01 12:22:43;;;;;;;7.88;4.65;;;20.50;95.00;;;;;;4994150;28;20103;-80
2021/07/01 12:25:21;;;;;;;5.63;4.53;;;20.60;95.10;;;;;;5010159;28;20402;-74
2021/07/01 12:28:12;;;;;;;6.18;4.45;;;20.60;95.00;;;;;;4974675;28;20546;-73
2021/07/01 12:31:00;;;;;;;7.25;4.78;;;20.60;95.00;;;;;;4989673;28;20045;-74
2021/07/01 12:33:36;;;;;;;5.78;4.45;;;20.60;95.00;;;;;;4989351;28;20118;-81
2021/07/01 12:36:08;;;;;;;6.93;5.32;;;20.60;95.00;;;;;;4974680;28;20030;-79
2021/07/01 12:38:36;;;;;;;6.75;4.97;;;20.70;95.00;;;;;;4974801;28;20372;-79
2021/07/01 12:41:05;;;;;;;5.45;4.65;;;20.70;95.00;;;;;;4974679;28;20412;-80
2021/07/01 12:43:51;;;;;;;7.57;5.07;;;20.70;95.00;;;;;;4977970;28;20034;-75
2021/07/01 12:46:45;;;;;;;5.38;4.80;;;20.70;94.90;;;;;;4993642;28;20019;-78
2021/07/01 12:49:18;;;;;;;5.82;4.57;;;20.70;94.90;;;;;;5007625;28;20037;-75
2021/07/01 12:51:48;;;;;;;7.43;5.70;;;20.70;95.00;;;;;;4993351;28;20367;-76
2021/07/01 12:54:25;;;;;;;7.00;4.95;;;20.70;95.00;;;;;;4993309;28;20030;-80
2021/07/01 12:56:54;;;;;;;8.00;5.35;;;20.70;94.90;;;;;;4993627;28;20478;-79